createdAt,value
2022-11-03T00:02:17.422Z,9.74
2022-11-03T00:04:49.127Z,9.74
2022-11-03T00:07:21.944Z,9.52
2022-11-03T00:09:51.520Z,9.48
2022-11-03T00:12:18.407Z,9.62
2022-11-03T00:14:45.334Z,9.80
2022-11-03T00:17:12.309Z,9.82
2022-11-03T00:19:39.134Z,9.92
2022-11-03T00:22:05.979Z,9.93
2022-11-03T00:24:35.412Z,9.83
2022-11-03T00:27:02.268Z,9.63
2022-11-03T00:29:33.969Z,9.82
2022-11-03T00:32:00.814Z,10.00
2022-11-03T00:34:27.690Z,10.04
2022-11-03T00:36:57.584Z,9.95
2022-11-03T00:39:24.412Z,10.08
2022-11-03T00:41:51.277Z,10.14
2022-11-03T00:44:18.151Z,9.78
2022-11-03T00:46:45.030Z,9.78
2022-11-03T00:49:13.969Z,9.88
2022-11-03T00:51:48.039Z,9.77
2022-11-03T00:54:14.895Z,9.70
2022-11-03T00:56:46.833Z,9.65
2022-11-03T00:59:13.636Z,9.74
2022-11-03T01:01:47.779Z,9.66
2022-11-03T01:04:37.298Z,9.59
2022-11-03T01:07:09.402Z,9.30
2022-11-03T01:09:41.296Z,9.14
2022-11-03T01:12:17.951Z,9.25
2022-11-03T01:14:49.300Z,9.37
2022-11-03T01:17:25.113Z,9.66
2022-11-03T01:19:53.067Z,9.70
2022-11-03T01:22:21.542Z,9.83
2022-11-03T01:24:56.572Z,9.85
2022-11-03T01:27:23.488Z,9.93
2022-11-03T01:29:55.335Z,10.15
2022-11-03T01:32:24.716Z,9.84
2022-11-03T01:34:51.700Z,9.78
2022-11-03T01:37:18.524Z,9.65
2022-11-03T01:39:45.345Z,9.78
2022-11-03T01:42:15.733Z,9.87
2022-11-03T01:44:47.650Z,9.75
2022-11-03T01:47:29.518Z,9.84
2022-11-03T01:50:06.278Z,9.79
2022-11-03T01:52:54.780Z,9.87
2022-11-03T01:55:29.726Z,9.96
2022-11-03T01:58:04.246Z,10.06
2022-11-03T02:00:34.081Z,10.20
2022-11-03T02:03:04.542Z,10.02
2022-11-03T02:05:31.699Z,10.02
2022-11-03T02:08:15.536Z,9.64
2022-11-03T02:10:48.484Z,9.85
2022-11-03T02:13:25.766Z,9.79
2022-11-03T02:16:02.830Z,10.14
2022-11-03T02:18:33.613Z,10.12
2022-11-03T02:21:35.715Z,10.08
2022-11-03T02:24:31.373Z,10.23
2022-11-03T02:26:58.305Z,10.15
2022-11-03T02:29:25.237Z,10.25
2022-11-03T02:32:07.455Z,10.41
2022-11-03T02:34:48.990Z,10.28
2022-11-03T02:37:25.256Z,10.25
2022-11-03T02:40:19.104Z,9.98
2022-11-03T02:42:51.259Z,10.29
2022-11-03T02:45:21.661Z,10.05
2022-11-03T02:47:56.091Z,10.12
2022-11-03T02:50:28.701Z,9.79
2022-11-03T02:52:56.160Z,10.02
2022-11-03T02:56:00.839Z,10.07
2022-11-03T02:58:52.822Z,10.01
2022-11-03T03:01:34.937Z,10.08
2022-11-03T03:04:07.549Z,10.21
2022-11-03T03:06:46.020Z,10.17
2022-11-03T03:09:29.868Z,10.17
2022-11-03T03:12:00.589Z,10.04
2022-11-03T03:14:36.575Z,10.08
2022-11-03T03:17:19.375Z,10.11
2022-11-03T03:20:08.540Z,10.26
2022-11-03T03:22:58.935Z,10.07
2022-11-03T03:25:29.825Z,10.10
2022-11-03T03:28:16.072Z,10.19
2022-11-03T03:30:45.272Z,10.39
2022-11-03T03:33:17.733Z,10.01
2022-11-03T03:35:48.687Z,10.10
2022-11-03T03:38:27.292Z,10.21
2022-11-03T03:40:57.657Z,10.08
2022-11-03T03:43:31.733Z,10.02
2022-11-03T03:46:06.680Z,10.11
2022-11-03T03:48:37.014Z,10.07
2022-11-03T03:51:07.416Z,10.06
2022-11-03T03:53:34.322Z,9.97
2022-11-03T03:56:01.315Z,9.86
2022-11-03T03:58:28.207Z,9.99
2022-11-03T04:00:55.215Z,10.00
2022-11-03T04:03:25.445Z,9.96
2022-11-03T04:05:57.208Z,10.10
2022-11-03T04:08:24.153Z,10.20
2022-11-03T04:11:09.625Z,10.21
2022-11-03T04:13:55.076Z,10.21
2022-11-03T04:16:40.367Z,10.31
2022-11-03T04:19:30.353Z,10.30
2022-11-03T04:22:18.048Z,10.25
2022-11-03T04:24:52.401Z,9.99
2022-11-03T04:27:34.223Z,10.22
2022-11-03T04:30:16.844Z,10.06
2022-11-03T04:32:46.358Z,10.00
2022-11-03T04:35:30.024Z,9.97
2022-11-03T04:38:02.553Z,9.88
2022-11-03T04:40:32.354Z,9.98
2022-11-03T04:43:05.527Z,10.22
2022-11-03T04:45:34.416Z,9.99
2022-11-03T04:48:10.614Z,9.86
2022-11-03T04:50:37.575Z,9.78
2022-11-03T04:53:13.391Z,9.82
2022-11-03T04:55:42.021Z,9.95
2022-11-03T04:58:36.841Z,10.13
2022-11-03T05:01:04.888Z,9.72
2022-11-03T05:03:39.806Z,9.61
2022-11-03T05:06:28.852Z,9.73
2022-11-03T05:09:02.977Z,9.79
2022-11-03T05:11:40.593Z,10.02
2022-11-03T05:14:17.638Z,9.94
2022-11-03T05:16:48.087Z,9.93
2022-11-03T05:19:43.107Z,10.11
2022-11-03T05:22:22.425Z,10.20
2022-11-03T05:24:56.829Z,10.42
2022-11-03T05:27:24.707Z,10.20
2022-11-03T05:30:00.591Z,9.87
2022-11-03T05:32:33.608Z,9.94
2022-11-03T05:35:01.326Z,10.03
2022-11-03T05:37:31.660Z,10.03
2022-11-03T05:40:25.732Z,10.19
2022-11-03T05:43:00.609Z,10.07
2022-11-03T05:45:34.778Z,9.82
2022-11-03T05:48:23.368Z,9.79
2022-11-03T05:50:52.732Z,9.36
2022-11-03T05:53:38.524Z,9.43
2022-11-03T05:56:07.256Z,9.39
2022-11-03T05:58:42.961Z,9.59
2022-11-03T06:01:16.616Z,9.64
2022-11-03T06:03:43.590Z,9.71
2022-11-03T06:06:31.779Z,9.82
2022-11-03T06:09:13.040Z,9.77
2022-11-03T06:11:43.445Z,9.73
2022-11-03T06:14:26.019Z,9.91
2022-11-03T06:17:09.883Z,9.74
2022-11-03T06:19:44.476Z,9.67
2022-11-03T06:22:29.368Z,9.55
2022-11-03T06:25:11.289Z,9.64
2022-11-03T06:27:40.611Z,9.83
2022-11-03T06:30:34.772Z,10.09
2022-11-03T06:33:34.713Z,10.13
2022-11-03T06:36:23.266Z,10.12
2022-11-03T06:39:04.448Z,9.92
2022-11-03T06:41:36.466Z,10.00
2022-11-03T06:44:23.454Z,10.14
2022-11-03T06:46:56.599Z,9.88
2022-11-03T06:49:35.852Z,10.06
2022-11-03T06:52:17.984Z,10.24
2022-11-03T06:54:49.814Z,10.37
2022-11-03T06:57:22.188Z,10.37
2022-11-03T07:00:06.636Z,10.23
2022-11-03T07:02:53.328Z,10.10
2022-11-03T07:05:29.462Z,10.12
2022-11-03T07:08:10.957Z,10.57
2022-11-03T07:10:37.938Z,11.23
2022-11-03T07:13:16.511Z,11.59
2022-11-03T07:15:46.945Z,12.08
2022-11-03T07:18:25.820Z,12.46
2022-11-03T07:20:54.970Z,12.44
2022-11-03T07:23:27.120Z,11.77
2022-11-03T07:26:05.841Z,11.89
2022-11-03T07:28:39.137Z,12.38
2022-11-03T07:31:28.418Z,12.29
2022-11-03T07:33:59.153Z,12.28
2022-11-03T07:36:31.023Z,12.05
2022-11-03T07:39:01.454Z,11.95
2022-11-03T07:41:34.754Z,11.69
2022-11-03T07:44:02.333Z,12.02
2022-11-03T07:46:29.370Z,12.01
2022-11-03T07:48:58.849Z,11.86
2022-11-03T07:51:28.534Z,12.01
2022-11-03T07:54:01.900Z,11.91
2022-11-03T07:56:42.627Z,12.39
2022-11-03T07:59:09.717Z,12.22
2022-11-03T08:01:42.350Z,12.03
2022-11-03T08:04:31.994Z,11.94
2022-11-03T08:07:01.435Z,11.69
2022-11-03T08:09:30.412Z,11.74
2022-11-03T08:11:57.285Z,11.56
2022-11-03T08:14:24.098Z,11.53
2022-11-03T08:16:54.156Z,11.79
2022-11-03T08:19:20.968Z,11.81
2022-11-03T08:21:47.779Z,11.91
2022-11-03T08:24:14.659Z,11.47
2022-11-03T08:26:41.509Z,11.53
2022-11-03T08:29:08.317Z,11.63
2022-11-03T08:31:37.342Z,11.88
2022-11-03T08:34:04.629Z,12.02
2022-11-03T08:36:32.437Z,12.04
2022-11-03T08:39:01.872Z,12.35
2022-11-03T08:41:28.665Z,12.18
2022-11-03T08:43:55.872Z,12.30
2022-11-03T08:46:22.871Z,12.56
2022-11-03T08:48:49.961Z,12.56
2022-11-03T08:51:17.016Z,12.50
2022-11-03T08:53:44.199Z,12.54
2022-11-03T08:56:13.804Z,12.50
2022-11-03T08:58:44.124Z,12.42
2022-11-03T09:01:11.165Z,12.50
2022-11-03T09:03:38.352Z,13.01
2022-11-03T09:06:05.792Z,13.21
2022-11-03T09:11:19.436Z,13.41
2022-11-03T09:13:49.284Z,13.60
2022-11-03T09:16:17.049Z,13.83
2022-11-03T09:18:45.389Z,14.24
2022-11-03T09:21:14.899Z,13.82
2022-11-03T09:23:42.005Z,14.06
2022-11-03T09:26:11.310Z,14.25
2022-11-03T09:28:45.201Z,14.33
2022-11-03T09:31:12.122Z,14.36
2022-11-03T09:33:41.970Z,14.18
2022-11-03T09:36:13.579Z,14.88
2022-11-03T09:38:45.185Z,15.44
2022-11-03T09:41:26.266Z,15.95
2022-11-03T09:44:02.787Z,16.59
2022-11-03T09:46:30.620Z,17.00
2022-11-03T09:48:58.869Z,18.28
2022-11-03T09:51:27.523Z,18.02
2022-11-03T09:54:02.059Z,19.46
2022-11-03T09:56:38.456Z,20.20
2022-11-03T09:59:21.736Z,20.84
2022-11-03T10:01:53.542Z,20.41
2022-11-03T10:04:31.181Z,20.73
2022-11-03T10:07:03.497Z,21.55
2022-11-03T10:09:30.436Z,22.65
2022-11-03T10:11:57.314Z,23.65
2022-11-03T10:14:24.580Z,23.94
2022-11-03T10:17:02.524Z,23.44
2022-11-03T10:19:30.079Z,24.18
2022-11-03T10:21:56.905Z,26.34
2022-11-03T10:24:24.905Z,25.63
2022-11-03T10:26:57.424Z,22.71
2022-11-03T10:29:28.704Z,21.01
2022-11-03T10:31:58.823Z,22.65
2022-11-03T10:34:37.813Z,22.87
2022-11-03T10:37:17.231Z,24.55
2022-11-03T10:39:47.878Z,24.09
2022-11-03T10:42:30.670Z,23.93
2022-11-03T10:45:20.452Z,25.26
2022-11-03T10:48:08.138Z,24.16
2022-11-03T10:50:43.219Z,23.17
2022-11-03T10:53:18.215Z,21.68
2022-11-03T10:55:45.504Z,21.54
2022-11-03T10:58:14.664Z,21.71
2022-11-03T11:00:45.406Z,21.75
2022-11-03T11:03:19.643Z,22.39
2022-11-03T11:05:49.261Z,23.84
2022-11-03T11:08:23.132Z,25.27
2022-11-03T11:10:54.081Z,25.28
2022-11-03T11:13:26.162Z,25.75
2022-11-03T11:16:02.020Z,25.82
2022-11-03T11:18:31.172Z,23.77
2022-11-03T11:21:24.177Z,23.23
2022-11-03T11:23:53.686Z,24.02
2022-11-03T11:26:26.300Z,24.24
2022-11-03T11:29:11.237Z,22.95
2022-11-03T11:32:51.027Z,22.96
2022-11-03T11:35:23.791Z,22.72
2022-11-03T11:37:50.849Z,21.57
2022-11-03T11:40:26.458Z,21.89
2022-11-03T11:43:13.566Z,21.65
2022-11-03T11:46:22.423Z,20.89
2022-11-03T11:49:04.656Z,20.11
2022-11-03T11:51:36.625Z,20.06
2022-11-03T11:54:18.685Z,19.54
2022-11-03T11:56:48.489Z,19.39
2022-11-03T11:59:25.809Z,19.12
2022-11-03T12:01:57.200Z,18.55
2022-11-03T12:04:31.025Z,18.19
2022-11-03T12:06:58.374Z,17.97
2022-11-03T12:09:27.995Z,17.25
2022-11-03T12:12:03.536Z,17.57
2022-11-03T12:14:37.023Z,17.71
2022-11-03T12:17:19.190Z,17.60
2022-11-03T12:19:46.822Z,17.28
2022-11-03T12:22:41.090Z,17.38
2022-11-03T12:25:37.240Z,17.98
2022-11-03T12:28:04.494Z,18.17
2022-11-03T12:30:35.514Z,18.39
2022-11-03T12:33:05.742Z,18.85
2022-11-03T12:35:32.821Z,17.85
2022-11-03T12:37:59.635Z,18.16
2022-11-03T12:40:27.200Z,18.13
2022-11-03T12:42:56.518Z,17.98
2022-11-03T12:45:23.427Z,18.29
2022-11-03T12:47:50.290Z,18.31
2022-11-03T12:50:17.277Z,18.27
2022-11-03T12:52:45.647Z,18.10
2022-11-03T12:55:12.561Z,18.11
2022-11-03T12:57:41.652Z,17.77
2022-11-03T13:00:09.204Z,17.63
2022-11-03T13:02:36.287Z,17.80
2022-11-03T13:05:03.984Z,18.18
2022-11-03T13:07:34.804Z,18.87
2022-11-03T13:10:07.057Z,19.04
2022-11-03T13:12:38.938Z,18.78
2022-11-03T13:15:10.094Z,19.04
2022-11-03T13:17:59.133Z,19.02
2022-11-03T13:20:26.136Z,19.20
2022-11-03T13:22:55.486Z,18.40
2022-11-03T13:25:24.753Z,18.39
2022-11-03T13:27:54.452Z,18.21
2022-11-03T13:30:25.475Z,18.17
2022-11-03T13:32:52.638Z,17.95
2022-11-03T13:35:20.002Z,17.75
2022-11-03T13:37:47.155Z,17.43
2022-11-03T13:40:35.849Z,17.30
2022-11-03T13:43:02.294Z,16.97
2022-11-03T13:45:29.420Z,16.81
2022-11-03T13:48:47.446Z,17.02
2022-11-03T13:50:45.249Z,16.89
2022-11-03T13:56:05.234Z,16.62
2022-11-03T14:01:22.752Z,16.54
2022-11-03T14:06:44.732Z,16.54
2022-11-03T14:09:14.052Z,16.59
2022-11-03T14:11:59.236Z,16.53
2022-11-03T14:14:26.073Z,16.47
2022-11-03T14:16:52.991Z,16.41
2022-11-03T14:19:19.996Z,16.55
2022-11-03T14:21:46.878Z,16.53
2022-11-03T14:24:16.531Z,16.57
2022-11-03T14:26:43.671Z,16.55
2022-11-03T14:29:10.725Z,16.48
2022-11-03T14:31:37.588Z,16.41
2022-11-03T14:34:09.837Z,16.48
2022-11-03T14:36:36.775Z,16.38
2022-11-03T14:39:07.061Z,16.46
2022-11-03T14:41:52.234Z,16.34
2022-11-03T14:44:19.091Z,16.35
2022-11-03T14:46:46.019Z,16.50
2022-11-03T14:49:12.931Z,16.46
2022-11-03T14:51:42.992Z,16.28
2022-11-03T14:54:09.812Z,16.30
2022-11-03T14:56:36.636Z,16.32
2022-11-03T14:59:08.934Z,16.17
2022-11-03T15:01:37.359Z,16.21
2022-11-03T15:04:05.078Z,15.91
2022-11-03T15:06:34.073Z,15.70
2022-11-03T15:09:04.011Z,15.70
2022-11-03T15:11:31.376Z,15.53
2022-11-03T15:13:58.239Z,15.54
2022-11-03T15:16:25.227Z,15.60
2022-11-03T15:18:54.701Z,15.50
2022-11-03T15:21:21.572Z,15.67
2022-11-03T15:26:41.437Z,15.49
2022-11-03T15:29:10.747Z,15.51
2022-11-03T15:31:38.360Z,15.66
2022-11-03T15:34:08.756Z,15.48
2022-11-03T15:36:35.986Z,15.30
2022-11-03T15:39:03.400Z,15.26
2022-11-03T15:41:30.899Z,15.37
2022-11-03T15:44:00.414Z,15.12
2022-11-03T15:46:30.037Z,15.10
2022-11-03T15:48:57.806Z,14.95
2022-11-03T15:51:25.274Z,14.70
2022-11-03T15:53:58.775Z,14.78
2022-11-03T15:56:31.930Z,14.90
2022-11-03T15:58:58.823Z,15.09
2022-11-03T16:01:28.009Z,15.04
2022-11-03T16:03:55.053Z,14.98
2022-11-03T16:06:46.632Z,15.16
2022-11-03T16:09:13.496Z,14.75
2022-11-03T16:11:43.347Z,14.77
2022-11-03T16:14:15.174Z,14.74
2022-11-03T16:16:42.018Z,14.72
2022-11-03T16:19:11.471Z,14.60
2022-11-03T16:21:38.348Z,14.49
2022-11-03T16:24:05.520Z,14.36
2022-11-03T16:26:32.446Z,14.36
2022-11-03T16:28:59.334Z,14.15
2022-11-03T16:31:29.016Z,14.21
2022-11-03T16:33:55.849Z,14.21
2022-11-03T16:36:25.125Z,14.07
2022-11-03T16:38:51.996Z,14.01
2022-11-03T16:41:18.935Z,14.07
2022-11-03T16:43:49.771Z,14.04
2022-11-03T16:46:16.799Z,13.91
2022-11-03T16:48:43.701Z,13.82
2022-11-03T16:51:10.557Z,13.75
2022-11-03T16:53:37.365Z,13.89
2022-11-03T16:56:04.597Z,13.87
2022-11-03T16:58:31.435Z,13.86
2022-11-03T17:01:00.893Z,13.92
2022-11-03T17:03:27.817Z,13.97
2022-11-03T17:06:00.129Z,13.98
2022-11-03T17:08:51.691Z,14.01
2022-11-03T17:11:16.028Z,13.70
2022-11-03T17:13:42.908Z,13.53
2022-11-03T17:16:09.784Z,13.75
2022-11-03T17:18:39.164Z,13.69
2022-11-03T17:21:08.623Z,13.78
2022-11-03T17:23:35.561Z,13.71
2022-11-03T17:26:03.241Z,13.76
2022-11-03T17:28:30.235Z,13.91
2022-11-03T17:30:59.330Z,13.78
2022-11-03T17:33:28.718Z,13.85
2022-11-03T17:35:58.499Z,13.89
2022-11-03T17:38:26.273Z,13.72
2022-11-03T17:40:53.125Z,13.57
2022-11-03T17:43:27.177Z,13.60
2022-11-03T17:45:56.430Z,13.60
2022-11-03T17:48:25.854Z,13.68
2022-11-03T17:50:55.631Z,13.51
2022-11-03T17:53:26.491Z,13.61
2022-11-03T17:56:28.045Z,13.61
2022-11-03T17:58:46.832Z,13.63
2022-11-03T18:01:25.422Z,13.59
2022-11-03T18:03:53.193Z,13.90
2022-11-03T18:06:25.423Z,13.70
2022-11-03T18:08:54.851Z,13.64
2022-11-03T18:11:45.190Z,13.63
2022-11-03T18:14:14.780Z,13.69
2022-11-03T18:16:44.304Z,13.76
2022-11-03T18:19:16.136Z,13.69
2022-11-03T18:21:45.706Z,13.64
2022-11-03T18:24:18.851Z,13.59
2022-11-03T18:26:46.012Z,13.65
2022-11-03T18:29:12.901Z,13.71
2022-11-03T18:31:49.696Z,13.54
2022-11-03T18:34:22.874Z,13.58
2022-11-03T18:36:50.125Z,13.51
2022-11-03T18:39:26.937Z,13.33
2022-11-03T18:41:56.776Z,13.40
2022-11-03T18:44:24.855Z,13.21
2022-11-03T18:46:52.758Z,13.45
2022-11-03T18:49:22.084Z,13.56
2022-11-03T18:52:02.861Z,13.49
2022-11-03T18:54:34.991Z,13.52
2022-11-03T18:57:02.720Z,13.40
2022-11-03T18:59:37.083Z,13.22
2022-11-03T19:02:22.128Z,13.22
2022-11-03T19:04:52.097Z,13.27
2022-11-03T19:07:29.159Z,13.47
2022-11-03T19:09:56.523Z,13.29
2022-11-03T19:12:26.223Z,13.35
2022-11-03T19:14:53.154Z,13.45
2022-11-03T19:17:23.537Z,13.65
2022-11-03T19:19:53.053Z,13.47
2022-11-03T19:22:23.185Z,13.46
2022-11-03T19:24:50.107Z,13.59
2022-11-03T19:27:25.522Z,13.63
2022-11-03T19:29:58.622Z,13.51
2022-11-03T19:32:32.342Z,13.54
2022-11-03T19:35:07.257Z,13.46
2022-11-03T19:37:36.005Z,13.35
2022-11-03T19:40:08.655Z,13.39
2022-11-03T19:42:38.179Z,13.23
2022-11-03T19:45:12.666Z,13.44
2022-11-03T19:50:38.411Z,13.32
2022-11-03T19:53:07.426Z,13.39
2022-11-03T19:55:42.214Z,13.49
2022-11-03T19:58:20.413Z,13.46
2022-11-03T20:00:48.121Z,13.35
2022-11-03T20:03:17.702Z,13.56
2022-11-03T20:05:49.362Z,13.14
2022-11-03T20:08:23.720Z,13.01
2022-11-03T20:10:50.656Z,13.08
2022-11-03T20:13:21.562Z,12.96
2022-11-03T20:15:48.422Z,12.86
2022-11-03T20:18:18.334Z,12.77
2022-11-03T20:20:48.226Z,12.84
2022-11-03T20:23:26.190Z,12.94
2022-11-03T20:25:53.916Z,13.00
2022-11-03T20:28:28.499Z,12.92
2022-11-03T20:30:57.057Z,12.99
2022-11-03T20:33:25.395Z,13.01
2022-11-03T20:35:56.687Z,12.89
2022-11-03T20:38:27.690Z,12.65
2022-11-03T20:40:59.826Z,12.71
2022-11-03T20:43:43.502Z,12.81
2022-11-03T20:46:26.427Z,12.96
2022-11-03T20:48:58.965Z,12.91
2022-11-03T20:51:30.988Z,12.90
2022-11-03T20:53:59.357Z,12.91
2022-11-03T20:56:29.700Z,13.02
2022-11-03T20:58:58.111Z,12.87
2022-11-03T21:01:35.491Z,13.01
2022-11-03T21:04:03.835Z,12.79
2022-11-03T21:06:36.360Z,12.88
2022-11-03T21:09:09.567Z,12.88
2022-11-03T21:11:40.584Z,12.98
2022-11-03T21:14:26.065Z,13.01
2022-11-03T21:17:11.713Z,12.93
2022-11-03T21:20:01.893Z,12.96
2022-11-03T21:22:52.270Z,12.72
2022-11-03T21:25:22.497Z,12.74
2022-11-03T21:27:53.511Z,12.89
2022-11-03T21:30:22.975Z,12.96
2022-11-03T21:32:52.314Z,12.98
2022-11-03T21:35:21.506Z,12.91
2022-11-03T21:37:48.600Z,12.64
2022-11-03T21:40:15.575Z,12.65
2022-11-03T21:43:00.738Z,12.64
2022-11-03T21:45:27.699Z,12.44
2022-11-03T21:48:14.403Z,12.55
2022-11-03T21:50:42.625Z,12.64
2022-11-03T21:53:10.447Z,12.53
2022-11-03T21:55:40.077Z,12.64
2022-11-03T21:58:06.893Z,12.64
2022-11-03T22:00:36.529Z,12.75
2022-11-03T22:03:03.407Z,12.69
2022-11-03T22:05:33.312Z,12.60
2022-11-03T22:08:00.115Z,12.86
2022-11-03T22:10:29.246Z,13.01
2022-11-03T22:12:56.049Z,12.64
2022-11-03T22:15:41.128Z,12.55
2022-11-03T22:18:08.376Z,12.42
2022-11-03T22:20:58.813Z,12.69
2022-11-03T22:23:44.211Z,12.56
2022-11-03T22:26:37.456Z,12.82
2022-11-03T22:29:25.291Z,12.69
2022-11-03T22:31:56.907Z,12.68
2022-11-03T22:34:43.251Z,12.58
2022-11-03T22:37:12.549Z,12.38
2022-11-03T22:40:04.082Z,12.45
2022-11-03T22:42:49.549Z,12.53
2022-11-03T22:45:38.685Z,12.45
2022-11-03T22:48:06.622Z,12.57
2022-11-03T22:50:33.684Z,12.25
2022-11-03T22:53:21.868Z,12.35
2022-11-03T22:55:48.702Z,12.53
2022-11-03T22:58:18.417Z,12.53
2022-11-03T23:00:47.759Z,12.73
2022-11-03T23:03:14.807Z,12.74
2022-11-03T23:05:42.839Z,12.32
2022-11-03T23:08:11.904Z,12.21
2022-11-03T23:10:38.908Z,12.01
2022-11-03T23:13:06.357Z,12.05
2022-11-03T23:15:33.404Z,12.39
2022-11-03T23:18:23.308Z,12.37
2022-11-03T23:21:08.211Z,12.29
2022-11-03T23:24:05.008Z,12.23
2022-11-03T23:26:34.893Z,12.46
2022-11-03T23:29:06.039Z,12.53
2022-11-03T23:31:35.118Z,12.39
2022-11-03T23:34:02.402Z,12.36
2022-11-03T23:36:31.059Z,12.20
2022-11-03T23:38:59.504Z,12.31
2022-11-03T23:41:27.737Z,12.19
2022-11-03T23:43:57.434Z,12.39
2022-11-03T23:46:46.114Z,12.32
2022-11-03T23:49:13.857Z,12.37
2022-11-03T23:51:41.954Z,12.29
2022-11-03T23:54:13.659Z,12.25
2022-11-03T23:57:04.771Z,12.29
2022-11-03T23:59:34.035Z,12.41
